Time;durP1;ratioP1;P1;durP2;ratioP2;P2;SDS_P1;SDS_P2;PMS_P1;PMS_P2;Temp;Humidity;BMP_temperature;BMP_pressure;BME280_temperature;BME280_humidity;BME280_pressure;Samples;Min_cycle;Max_cycle;Signal;HPM_P1;HPM_P2
2022/01/24 00:01:15;;;;;;;0.60;0.60;;;5.50;99.90;;;;;;5075613;28;20476;-83
2022/01/24 00:03:41;;;;;;;0.60;0.60;;;5.40;99.90;;;;;;5078050;28;20055;-84
2022/01/24 00:06:10;;;;;;;0.60;0.60;;;5.50;99.90;;;;;;5060630;28;20040;-83
2022/01/24 00:08:36;;;;;;;0.60;0.60;;;5.40;99.90;;;;;;5048598;28;20062;-85
2022/01/24 00:11:07;;;;;;;0.80;0.80;;;5.40;99.90;;;;;;5074520;28;20093;-84
2022/01/24 00:16:57;;;;;;;1.10;1.00;;;5.40;99.90;;;;;;5063525;28;20153;-84
2022/01/24 00:27:37;;;;;;;0.68;0.68;;;5.40;99.90;;;;;;5038410;28;20148;-83
2022/01/24 00:30:03;;;;;;;0.70;0.70;;;5.40;99.90;;;;;;5043769;28;20882;-84
2022/01/24 00:32:28;;;;;;;0.70;0.70;;;5.40;99.90;;;;;;5056008;28;20079;-84
2022/01/24 00:34:54;;;;;;;0.60;0.60;;;5.40;99.90;;;;;;5074596;28;20033;-85
2022/01/24 00:37:20;;;;;;;0.70;0.70;;;5.40;99.90;;;;;;5071727;28;20050;-85
2022/01/24 00:39:47;;;;;;;0.70;0.70;;;5.30;99.90;;;;;;5076570;28;20044;-85
2022/01/24 00:45:08;;;;;;;0.80;0.80;;;5.30;99.90;;;;;;5070336;28;20052;-84
2022/01/24 00:48:29;;;;;;;0.63;0.63;;;5.30;99.90;;;;;;5073962;28;20074;-82
2022/01/24 00:55:47;;;;;;;0.68;0.68;;;5.30;99.90;;;;;;5074832;28;19925;-85
2022/01/24 00:58:13;;;;;;;0.68;0.68;;;5.30;99.90;;;;;;5072107;28;20049;-85
2022/01/24 01:00:39;;;;;;;0.70;0.70;;;5.30;99.90;;;;;;5057361;28;20045;-84
2022/01/24 01:03:04;;;;;;;0.70;0.70;;;5.30;99.90;;;;;;5076617;28;20059;-84
2022/01/24 01:19:06;;;;;;;0.70;0.70;;;5.20;99.90;;;;;;5076840;28;20044;-85
2022/01/24 01:21:32;;;;;;;0.65;0.65;;;5.20;99.90;;;;;;5074394;28;20532;-84
2022/01/24 01:23:59;;;;;;;0.60;0.60;;;5.20;99.90;;;;;;5066572;28;20039;-84
2022/01/24 01:29:04;;;;;;;0.70;0.70;;;5.20;99.90;;;;;;5067897;28;20076;-85
2022/01/24 01:31:44;;;;;;;0.60;0.60;;;5.20;99.90;;;;;;5057218;28;20048;-85
2022/01/24 01:34:27;;;;;;;0.70;0.70;;;5.20;99.90;;;;;;5055334;28;20037;-85
2022/01/24 01:39:44;;;;;;;0.65;0.65;;;5.10;99.90;;;;;;5072403;28;20200;-84
2022/01/24 01:55:51;;;;;;;0.80;0.80;;;5.10;99.90;;;;;;5074955;28;19935;-85
2022/01/24 01:58:20;;;;;;;0.60;0.60;;;5.10;99.90;;;;;;5076921;28;20096;-85
2022/01/24 02:00:52;;;;;;;1.15;1.00;;;5.10;99.90;;;;;;5045783;28;20041;-85
2022/01/24 02:03:19;;;;;;;0.82;0.82;;;5.10;99.90;;;;;;5075859;28;20064;-85
2022/01/24 02:05:44;;;;;;;1.27;1.17;;;5.00;99.90;;;;;;5068048;28;20056;-85
2022/01/24 02:08:11;;;;;;;0.75;0.75;;;5.00;99.90;;;;;;5054518;28;20040;-84
2022/01/24 02:10:38;;;;;;;0.60;0.60;;;5.00;99.90;;;;;;5070137;28;20064;-84
2022/01/24 02:13:04;;;;;;;0.75;0.75;;;5.10;99.90;;;;;;5052915;28;20045;-85
2022/01/24 02:15:56;;;;;;;0.65;0.65;;;5.00;99.90;;;;;;5051793;28;20060;-84
2022/01/24 02:18:35;;;;;;;0.70;0.70;;;5.00;99.90;;;;;;5071237;28;20056;-85
2022/01/24 02:21:23;;;;;;;0.63;0.63;;;5.00;99.90;;;;;;5066076;28;20045;-85
2022/01/24 02:24:30;;;;;;;0.80;0.80;;;5.00;99.90;;;;;;5052488;28;20040;-85
2022/01/24 02:26:57;;;;;;;1.05;1.02;;;4.90;99.90;;;;;;5062327;28;20063;-85
2022/01/24 02:29:50;;;;;;;0.70;0.70;;;5.00;99.90;;;;;;5024003;28;20117;-84
2022/01/24 02:32:16;;;;;;;0.65;0.65;;;5.00;99.90;;;;;;5066009;28;20068;-85
2022/01/24 02:34:45;;;;;;;0.60;0.60;;;5.00;99.90;;;;;;5065353;28;20113;-85
2022/01/24 02:37:14;;;;;;;0.73;0.73;;;5.00;99.90;;;;;;5067039;28;20048;-85
2022/01/24 02:51:01;;;;;;;;;;;4.90;99.90;;;;;;5067692;28;20094;-85
2022/01/24 02:53:29;;;;;;;0.63;0.63;;;4.90;99.90;;;;;;5049030;28;19920;-85
2022/01/24 02:55:54;;;;;;;0.70;0.70;;;4.90;99.90;;;;;;5061292;28;20118;-85
2022/01/24 02:58:20;;;;;;;0.80;0.80;;;4.90;99.90;;;;;;5065881;28;20067;-84
2022/01/24 03:00:47;;;;;;;0.70;0.70;;;4.90;99.90;;;;;;5051603;28;20127;-84
2022/01/24 03:03:13;;;;;;;0.60;0.60;;;4.90;99.90;;;;;;5060769;28;20029;-85
2022/01/24 03:05:39;;;;;;;0.65;0.65;;;4.90;99.90;;;;;;5058474;28;20044;-85
2022/01/24 03:08:06;;;;;;;0.60;0.60;;;5.20;99.90;;;;;;5062362;28;20079;-84
2022/01/24 03:10:42;;;;;;;0.80;0.80;;;5.00;99.90;;;;;;5057575;28;20715;-85
2022/01/24 03:15:41;;;;;;;0.63;0.63;;;4.90;99.90;;;;;;5071782;28;20053;-84
2022/01/24 03:18:07;;;;;;;0.70;0.70;;;4.90;99.90;;;;;;5062098;28;20051;-85
2022/01/24 03:20:33;;;;;;;0.80;0.80;;;4.90;99.90;;;;;;5079397;28;20037;-85
2022/01/24 03:22:59;;;;;;;0.70;0.70;;;4.90;99.90;;;;;;5074392;28;20060;-85
2022/01/24 03:25:25;;;;;;;1.05;1.05;;;4.90;99.90;;;;;;5053468;28;20498;-85
2022/01/24 03:27:50;;;;;;;0.68;0.68;;;4.90;99.90;;;;;;5069626;28;20099;-84
2022/01/24 03:30:16;;;;;;;0.82;0.82;;;4.90;99.90;;;;;;5054526;28;20036;-84
2022/01/24 03:32:41;;;;;;;0.70;0.70;;;4.90;99.90;;;;;;5060693;28;20045;-84
2022/01/24 03:35:07;;;;;;;0.60;0.60;;;4.80;99.90;;;;;;5077269;28;20094;-85
2022/01/24 03:37:36;;;;;;;0.70;0.70;;;4.90;99.90;;;;;;5073618;28;20072;-84
2022/01/24 03:40:06;;;;;;;0.70;0.70;;;4.90;99.90;;;;;;5058640;28;20048;-85
2022/01/24 03:42:32;;;;;;;1.00;0.93;;;4.90;99.90;;;;;;5076842;28;20056;-84
2022/01/24 03:45:02;;;;;;;0.70;0.70;;;4.90;99.90;;;;;;5073873;28;20069;-85
2022/01/24 03:50:17;;;;;;;0.65;0.65;;;4.90;99.90;;;;;;5074787;28;20049;-84
2022/01/24 03:52:46;;;;;;;0.70;0.70;;;4.90;99.90;;;;;;5052960;28;20055;-85
2022/01/24 03:55:12;;;;;;;0.70;0.70;;;4.80;99.90;;;;;;5057920;28;20047;-85
2022/01/24 03:57:39;;;;;;;0.68;0.68;;;4.80;99.90;;;;;;5058039;28;20056;-85
2022/01/24 04:00:06;;;;;;;0.70;0.70;;;4.90;99.90;;;;;;5074602;28;20048;-85
2022/01/24 04:02:32;;;;;;;0.70;0.70;;;4.80;99.90;;;;;;5075065;28;20064;-85
2022/01/24 04:04:58;;;;;;;0.60;0.60;;;4.80;99.90;;;;;;5059352;28;20049;-85
2022/01/24 04:07:23;;;;;;;0.60;0.60;;;4.80;99.90;;;;;;5056962;28;20032;-85
2022/01/24 04:09:50;;;;;;;0.60;0.60;;;4.80;99.90;;;;;;5048534;28;20083;-85
2022/01/24 04:12:16;;;;;;;0.70;0.70;;;4.80;99.90;;;;;;5061587;28;20716;-85
2022/01/24 04:15:42;;;;;;;0.60;0.60;;;4.80;99.90;;;;;;5062458;28;20119;-85
2022/01/24 04:17:37;;;;;;;0.60;0.60;;;4.80;99.90;;;;;;5052508;28;20060;-84
2022/01/24 04:22:50;;;;;;;0.63;0.63;;;4.80;99.90;;;;;;5072958;28;21457;-85
2022/01/24 04:25:22;;;;;;;0.93;0.93;;;4.80;99.90;;;;;;5055488;28;20032;-85
2022/01/24 04:27:48;;;;;;;0.85;0.85;;;4.80;99.90;;;;;;5055365;28;20140;-85
2022/01/24 04:30:14;;;;;;;1.48;1.23;;;4.80;99.90;;;;;;5069286;28;20129;-85
2022/01/24 04:32:39;;;;;;;1.13;1.02;;;4.80;99.90;;;;;;5056852;28;20032;-85
2022/01/24 04:35:05;;;;;;;0.70;0.70;;;4.80;99.90;;;;;;5078198;28;20037;-85
2022/01/24 04:37:31;;;;;;;0.82;0.82;;;4.80;99.90;;;;;;5045197;28;20041;-85
2022/01/24 04:39:56;;;;;;;0.80;0.80;;;4.80;99.90;;;;;;5069578;28;20040;-85
2022/01/24 04:42:31;;;;;;;5.07;1.10;;;4.80;99.90;;;;;;5065741;28;20045;-85
2022/01/24 04:45:22;;;;;;;0.93;0.93;;;4.80;99.90;;;;;;5058821;28;20048;-85
2022/01/24 04:53:32;;;;;;;0.70;0.70;;;4.80;99.90;;;;;;5069543;28;19925;-85
2022/01/24 04:55:58;;;;;;;0.85;0.85;;;4.80;99.90;;;;;;5057122;28;20049;-84
2022/01/24 04:58:23;;;;;;;1.00;1.00;;;4.70;99.90;;;;;;5055874;28;20069;-85
2022/01/24 05:00:49;;;;;;;0.80;0.80;;;4.80;99.90;;;;;;5048895;28;20044;-85
2022/01/24 05:03:15;;;;;;;0.95;0.95;;;4.80;99.90;;;;;;5067983;28;20044;-85
2022/01/24 05:05:41;;;;;;;1.13;0.80;;;4.80;99.90;;;;;;5061723;28;20044;-85
2022/01/24 05:08:08;;;;;;;0.90;0.90;;;4.80;99.90;;;;;;5077158;28;20155;-85
2022/01/24 05:11:03;;;;;;;0.70;0.70;;;4.80;99.90;;;;;;5058471;28;20068;-84
2022/01/24 05:23:23;;;;;;;1.15;0.98;;;4.70;99.90;;;;;;5064963;28;19920;-85
2022/01/24 05:24:18;;;;;;;1.30;1.25;;;4.70;99.90;;;;;;5076491;28;20055;-85
2022/01/24 05:26:43;;;;;;;0.70;0.70;;;4.80;99.90;;;;;;5072177;28;20044;-85
2022/01/24 05:29:09;;;;;;;0.82;0.82;;;4.70;99.90;;;;;;5068154;28;20099;-85
2022/01/24 05:31:34;;;;;;;0.60;0.60;;;4.70;99.90;;;;;;5070878;28;20060;-85
2022/01/24 05:34:00;;;;;;;0.77;0.77;;;4.70;99.90;;;;;;5017172;28;1028013;-85
2022/01/24 05:36:26;;;;;;;0.60;0.60;;;4.70;99.90;;;;;;5072450;28;20796;-85
2022/01/24 05:38:51;;;;;;;0.90;0.90;;;4.70;99.90;;;;;;5074768;28;20100;-84
2022/01/24 05:41:17;;;;;;;10.77;1.08;;;4.70;99.90;;;;;;5056702;28;20032;-84
2022/01/24 05:43:43;;;;;;;0.73;0.73;;;4.70;99.90;;;;;;5056901;28;20047;-84
2022/01/24 05:46:09;;;;;;;0.90;0.90;;;4.70;99.90;;;;;;5073763;28;20106;-85
2022/01/24 05:48:34;;;;;;;3.80;0.98;;;4.70;99.90;;;;;;5060251;28;20110;-84
2022/01/24 05:51:00;;;;;;;0.65;0.65;;;4.70;99.90;;;;;;5070366;28;20409;-84
2022/01/24 05:53:26;;;;;;;0.93;0.93;;;4.70;99.90;;;;;;5059535;28;20045;-84
2022/01/24 05:55:53;;;;;;;0.70;0.70;;;4.70;99.90;;;;;;5070324;28;20132;-85
2022/01/24 05:58:18;;;;;;;0.80;0.80;;;4.70;99.90;;;;;;5054236;28;20297;-84
2022/01/24 06:00:44;;;;;;;0.80;0.80;;;4.70;99.90;;;;;;5059966;28;20040;-85
2022/01/24 06:03:09;;;;;;;1.02;1.02;;;4.70;99.90;;;;;;5072083;28;20045;-85
2022/01/24 06:05:35;;;;;;;0.88;0.80;;;4.70;99.90;;;;;;5071309;28;20040;-85
2022/01/24 06:08:00;;;;;;;1.38;1.27;;;4.80;99.90;;;;;;5069958;28;20457;-85
2022/01/24 06:10:26;;;;;;;0.73;0.73;;;4.70;99.90;;;;;;5071186;28;20049;-84
2022/01/24 06:12:52;;;;;;;1.33;1.23;;;4.70;99.90;;;;;;5074632;28;20044;-85
2022/01/24 06:15:17;;;;;;;0.80;0.80;;;4.70;99.90;;;;;;5058376;28;20096;-85
2022/01/24 06:17:43;;;;;;;0.77;0.77;;;4.60;99.90;;;;;;5061909;28;20032;-85
2022/01/24 06:20:09;;;;;;;0.70;0.70;;;4.60;99.90;;;;;;5056790;28;20041;-84
2022/01/24 06:22:40;;;;;;;0.90;0.85;;;4.60;99.90;;;;;;5070472;28;20049;-85
2022/01/24 06:25:07;;;;;;;0.70;0.70;;;4.60;99.90;;;;;;5046615;28;20089;-84
2022/01/24 06:27:33;;;;;;;0.60;0.60;;;4.60;99.90;;;;;;5069551;28;20405;-85
2022/01/24 06:29:58;;;;;;;0.70;0.70;;;4.60;99.90;;;;;;5069063;28;20037;-84
2022/01/24 06:32:24;;;;;;;0.70;0.70;;;4.60;99.90;;;;;;5051680;28;20455;-85
2022/01/24 06:34:49;;;;;;;1.45;1.35;;;4.60;99.90;;;;;;5060838;28;20037;-85
2022/01/24 06:37:15;;;;;;;0.60;0.60;;;4.60;99.90;;;;;;5084877;28;20040;-85
2022/01/24 06:39:41;;;;;;;0.80;0.80;;;4.60;99.90;;;;;;5069698;28;20056;-88
2022/01/24 06:42:21;;;;;;;0.70;0.70;;;4.60;99.90;;;;;;5055800;28;20037;-88
2022/01/24 06:44:48;;;;;;;0.80;0.80;;;4.50;99.90;;;;;;5063158;28;20500;-86
2022/01/24 06:47:14;;;;;;;1.27;1.17;;;4.60;99.90;;;;;;5069284;28;20071;-87
2022/01/24 06:49:39;;;;;;;0.75;0.75;;;4.50;99.90;;;;;;5080348;28;20040;-88
2022/01/24 06:52:06;;;;;;;0.75;0.75;;;4.50;99.90;;;;;;5058438;28;20551;-88
2022/01/24 06:54:33;;;;;;;0.60;0.60;;;4.50;99.90;;;;;;5074491;28;20048;-88
2022/01/24 06:56:59;;;;;;;1.00;1.00;;;4.50;99.90;;;;;;5053343;28;20104;-88
2022/01/24 06:59:25;;;;;;;1.35;1.25;;;4.50;99.90;;;;;;5065012;28;20036;-87
2022/01/24 07:01:50;;;;;;;1.35;1.25;;;4.50;99.90;;;;;;5071348;28;20036;-87
2022/01/24 07:04:16;;;;;;;0.80;0.80;;;4.50;99.90;;;;;;5061570;28;20131;-88
2022/01/24 07:06:41;;;;;;;0.70;0.70;;;4.50;99.90;;;;;;5051543;28;20033;-88
2022/01/24 07:09:07;;;;;;;0.70;0.70;;;4.50;99.90;;;;;;5063791;28;20063;-89
2022/01/24 07:11:33;;;;;;;0.60;0.60;;;4.50;99.90;;;;;;5077162;28;20041;-89
2022/01/24 07:13:58;;;;;;;0.70;0.70;;;4.50;99.90;;;;;;5062742;28;20116;-88
2022/01/24 07:16:35;;;;;;;7.78;1.15;;;4.50;99.90;;;;;;5064223;28;20043;-89
2022/01/24 07:19:03;;;;;;;2.22;0.93;;;4.50;99.90;;;;;;5068889;28;20159;-93
2022/01/24 07:21:30;;;;;;;0.65;0.65;;;4.50;99.90;;;;;;5043338;28;20045;-84
2022/01/24 07:23:56;;;;;;;1.10;1.00;;;4.50;99.90;;;;;;5066048;28;20033;-82
2022/01/24 07:26:21;;;;;;;0.70;0.70;;;4.50;99.90;;;;;;5065669;28;20041;-80
2022/01/24 07:28:47;;;;;;;0.85;0.85;;;4.50;99.90;;;;;;5064839;28;20052;-81
2022/01/24 07:31:13;;;;;;;0.70;0.70;;;4.50;99.90;;;;;;5070742;28;20543;-82
2022/01/24 07:33:42;;;;;;;1.00;1.00;;;4.50;99.90;;;;;;5070390;28;20049;-82
2022/01/24 07:36:07;;;;;;;0.68;0.68;;;4.50;99.90;;;;;;5072070;28;20101;-84
2022/01/24 07:38:33;;;;;;;1.70;1.45;;;4.50;99.90;;;;;;5074642;28;20169;-84
2022/01/24 07:41:00;;;;;;;0.93;0.90;;;4.50;99.90;;;;;;5049256;28;20041;-83
2022/01/24 07:43:26;;;;;;;0.60;0.60;;;4.50;99.90;;;;;;5058564;28;20183;-84
2022/01/24 07:45:52;;;;;;;0.75;0.75;;;4.40;99.90;;;;;;5080394;28;20131;-83
2022/01/24 07:48:19;;;;;;;0.80;0.80;;;4.50;99.90;;;;;;5076998;28;20978;-83
2022/01/24 07:50:46;;;;;;;1.35;0.82;;;4.50;99.90;;;;;;5071444;28;20327;-81
2022/01/24 07:53:13;;;;;;;1.25;1.15;;;4.50;99.90;;;;;;5079036;28;20048;-82
2022/01/24 07:55:39;;;;;;;0.70;0.70;;;4.40;99.90;;;;;;5074758;28;20141;-82
2022/01/24 07:58:06;;;;;;;1.23;1.13;;;4.40;99.90;;;;;;5075629;28;20408;-82
2022/01/24 08:00:33;;;;;;;0.80;0.80;;;4.50;99.90;;;;;;5073439;28;20429;-81
2022/01/24 08:02:58;;;;;;;0.80;0.80;;;4.40;99.90;;;;;;5073163;28;20173;-83
2022/01/24 08:05:25;;;;;;;0.90;0.90;;;4.40;99.90;;;;;;5059577;28;20402;-83
2022/01/24 08:07:51;;;;;;;0.90;0.90;;;4.50;99.90;;;;;;5070347;28;20051;-83
2022/01/24 08:10:17;;;;;;;0.68;0.68;;;4.50;99.90;;;;;;5074580;28;20122;-82
2022/01/24 08:12:44;;;;;;;0.80;0.80;;;4.50;99.90;;;;;;5073961;28;20056;-83
2022/01/24 08:15:14;;;;;;;0.70;0.70;;;4.50;99.90;;;;;;5076935;28;20036;-83
2022/01/24 08:17:43;;;;;;;0.82;0.82;;;4.50;99.90;;;;;;5080489;28;20040;-83
2022/01/24 08:20:11;;;;;;;0.90;0.90;;;4.50;99.90;;;;;;5073447;28;20052;-83
2022/01/24 08:22:37;;;;;;;0.80;0.80;;;4.50;99.90;;;;;;5077501;28;20074;-83
2022/01/24 08:25:04;;;;;;;0.80;0.80;;;4.50;99.90;;;;;;5073382;28;20068;-83
2022/01/24 08:27:31;;;;;;;0.70;0.70;;;4.60;99.90;;;;;;5078391;28;20037;-83
2022/01/24 08:29:57;;;;;;;0.70;0.70;;;4.60;99.90;;;;;;5069329;28;20036;-82
2022/01/24 08:32:23;;;;;;;2.90;1.40;;;4.60;99.90;;;;;;5074521;28;20072;-83
2022/01/24 08:34:49;;;;;;;0.73;0.73;;;4.60;99.90;;;;;;5070900;28;20065;-83
2022/01/24 08:37:15;;;;;;;0.73;0.73;;;4.60;99.90;;;;;;5077030;28;20051;-83
2022/01/24 08:39:42;;;;;;;0.95;0.95;;;4.50;99.90;;;;;;5069039;28;20119;-83
2022/01/24 08:42:16;;;;;;;0.63;0.63;;;4.50;99.90;;;;;;5053515;28;20043;-83
2022/01/24 08:47:24;;;;;;;0.90;0.90;;;4.60;99.90;;;;;;5072625;28;20054;-82
2022/01/24 08:49:51;;;;;;;0.70;0.70;;;4.60;99.90;;;;;;5069730;28;20135;-82
2022/01/24 08:52:17;;;;;;;0.80;0.80;;;4.60;99.90;;;;;;5077076;28;20055;-84
2022/01/24 08:54:42;;;;;;;0.73;0.73;;;4.70;99.90;;;;;;5057007;28;20049;-85
2022/01/24 08:57:08;;;;;;;1.08;1.00;;;4.70;99.90;;;;;;5076657;28;20041;-83
2022/01/24 08:59:35;;;;;;;1.38;0.90;;;4.70;99.90;;;;;;5060044;28;20053;-83
2022/01/24 09:02:02;;;;;;;0.55;0.55;;;4.70;99.90;;;;;;5062100;28;20048;-82
2022/01/24 09:04:27;;;;;;;0.90;0.90;;;4.70;99.90;;;;;;5072482;28;20047;-84
2022/01/24 09:06:53;;;;;;;0.75;0.75;;;4.70;99.90;;;;;;5076866;28;20040;-83
2022/01/24 09:09:20;;;;;;;0.70;0.70;;;4.70;99.90;;;;;;5055683;28;20040;-82
2022/01/24 09:11:46;;;;;;;0.70;0.70;;;4.70;99.90;;;;;;5068793;28;20056;-84
2022/01/24 09:14:12;;;;;;;0.75;0.75;;;4.70;99.90;;;;;;5050227;28;20055;-81
2022/01/24 09:16:38;;;;;;;0.80;0.80;;;4.80;99.90;;;;;;5070703;28;20032;-82
2022/01/24 09:19:05;;;;;;;0.70;0.70;;;4.80;99.90;;;;;;5073401;28;20069;-82
2022/01/24 09:21:34;;;;;;;0.95;0.95;;;4.80;99.90;;;;;;5074091;28;20049;-82
2022/01/24 09:24:00;;;;;;;1.35;1.25;;;4.80;99.90;;;;;;5070647;28;20048;-82
2022/01/24 09:26:26;;;;;;;1.17;1.13;;;4.80;99.90;;;;;;5076361;28;20052;-82
2022/01/24 09:28:52;;;;;;;0.90;0.90;;;4.90;99.90;;;;;;5069832;28;20052;-83
2022/01/24 09:31:18;;;;;;;0.77;0.77;;;4.90;99.90;;;;;;5079144;28;20060;-83
2022/01/24 09:33:43;;;;;;;1.58;1.45;;;4.80;99.90;;;;;;5078279;28;20041;-82
2022/01/24 09:36:09;;;;;;;0.70;0.70;;;4.90;99.90;;;;;;5072525;28;20052;-83
2022/01/24 09:38:36;;;;;;;0.80;0.80;;;4.90;99.90;;;;;;5072582;28;20078;-89
2022/01/24 09:41:07;;;;;;;1.13;1.13;;;4.90;99.90;;;;;;5056577;28;20119;-85
2022/01/24 09:43:33;;;;;;;0.70;0.70;;;4.90;99.90;;;;;;5076302;28;20045;-82
2022/01/24 09:46:00;;;;;;;0.70;0.70;;;4.90;99.90;;;;;;5070535;28;20053;-82
2022/01/24 09:48:26;;;;;;;0.80;0.80;;;5.00;99.90;;;;;;5075070;28;20131;-81
2022/01/24 09:50:53;;;;;;;0.90;0.90;;;5.00;99.90;;;;;;5079121;28;20345;-82
2022/01/24 09:53:20;;;;;;;0.82;0.82;;;5.00;99.90;;;;;;5077224;28;20147;-82
2022/01/24 09:55:46;;;;;;;1.83;1.25;;;5.00;99.90;;;;;;5078135;28;20369;-82
2022/01/24 09:58:12;;;;;;;0.98;0.98;;;5.00;99.90;;;;;;5075800;28;20049;-83
2022/01/24 10:00:38;;;;;;;0.80;0.80;;;5.00;99.90;;;;;;5073364;28;20060;-83
2022/01/24 10:03:03;;;;;;;1.17;1.08;;;5.10;99.90;;;;;;5072971;28;20159;-82
2022/01/24 10:05:37;;;;;;;0.82;0.82;;;5.10;99.90;;;;;;5071278;28;20522;-82
2022/01/24 10:08:05;;;;;;;2.45;1.42;;;5.10;99.90;;;;;;5052364;28;20051;-83
2022/01/24 10:10:33;;;;;;;0.95;0.93;;;5.10;99.90;;;;;;5081159;28;20069;-83
2022/01/24 10:16:48;;;;;;;0.80;0.70;;;5.10;99.90;;;;;;5081671;28;20052;-83
2022/01/24 10:19:19;;;;;;;0.70;0.70;;;5.20;99.90;;;;;;5080229;28;20074;-83
2022/01/24 10:21:50;;;;;;;5.68;2.05;;;5.20;99.90;;;;;;5079278;28;20445;-85
2022/01/24 10:24:43;;;;;;;0.70;0.70;;;5.20;99.90;;;;;;5063127;28;20052;-86
2022/01/24 10:27:23;;;;;;;1.02;0.88;;;5.20;99.90;;;;;;5065053;28;20067;-86
2022/01/24 10:30:10;;;;;;;1.00;1.00;;;5.20;99.90;;;;;;5061905;28;20044;-85
2022/01/24 10:32:46;;;;;;;1.27;1.17;;;5.20;99.90;;;;;;5061134;28;20041;-85
2022/01/24 10:35:43;;;;;;;1.15;1.10;;;5.30;99.90;;;;;;5064034;28;20029;-85
2022/01/24 10:38:21;;;;;;;1.40;1.30;;;5.20;99.90;;;;;;5078490;28;20484;-83
2022/01/24 10:40:53;;;;;;;2.40;1.70;;;5.20;99.90;;;;;;5059360;28;20118;-83
2022/01/24 10:43:27;;;;;;;0.70;0.70;;;5.20;99.90;;;;;;5075328;28;20052;-83
2022/01/24 10:45:55;;;;;;;1.92;1.38;;;5.20;99.90;;;;;;5058737;28;20080;-84
2022/01/24 10:48:29;;;;;;;0.80;0.80;;;5.20;99.90;;;;;;5061091;28;20033;-83
2022/01/24 10:51:08;;;;;;;1.67;1.55;;;5.20;99.90;;;;;;5080514;28;20104;-83
2022/01/24 10:53:37;;;;;;;1.30;1.20;;;5.30;99.90;;;;;;5081898;28;20076;-83
2022/01/24 10:56:22;;;;;;;1.17;1.08;;;5.30;99.90;;;;;;5072074;28;20036;-82
2022/01/24 10:58:48;;;;;;;1.80;1.70;;;5.30;99.90;;;;;;5064416;28;20036;-82
2022/01/24 11:01:13;;;;;;;1.63;1.52;;;5.30;99.90;;;;;;5075119;28;20033;-82
2022/01/24 11:03:39;;;;;;;1.80;1.38;;;5.30;99.90;;;;;;5080525;28;20040;-83
2022/01/24 11:06:05;;;;;;;2.42;1.35;;;5.20;99.90;;;;;;5077845;28;20121;-82
2022/01/24 11:08:30;;;;;;;0.70;0.70;;;5.30;99.90;;;;;;5078898;28;20071;-83
2022/01/24 11:10:56;;;;;;;1.20;1.10;;;5.40;99.90;;;;;;5073279;28;20041;-84
2022/01/24 11:13:25;;;;;;;4.07;1.65;;;5.30;99.90;;;;;;5073105;28;20037;-82
2022/01/24 11:15:56;;;;;;;1.58;1.40;;;5.30;99.90;;;;;;5077067;28;20044;-83
2022/01/24 11:18:26;;;;;;;2.05;1.45;;;5.30;99.90;;;;;;5069230;28;20041;-83
2022/01/24 11:21:01;;;;;;;1.33;1.23;;;5.30;99.90;;;;;;5069480;28;20104;-84
2022/01/24 11:23:28;;;;;;;2.50;1.75;;;5.40;99.90;;;;;;5055634;28;20048;-83
2022/01/24 11:25:57;;;;;;;1.25;1.15;;;5.30;99.90;;;;;;5070430;28;20028;-83
2022/01/24 11:28:24;;;;;;;3.28;3.00;;;5.50;99.90;;;;;;5074156;28;20496;-84
2022/01/24 11:31:06;;;;;;;4.65;1.92;;;5.40;99.90;;;;;;5057904;28;20044;-83
2022/01/24 11:33:36;;;;;;;5.28;3.03;;;5.40;99.90;;;;;;5078084;28;20053;-83
2022/01/24 11:36:07;;;;;;;3.85;2.88;;;5.40;99.90;;;;;;5073313;28;20043;-83
2022/01/24 11:38:57;;;;;;;2.72;2.53;;;5.40;99.90;;;;;;5070871;28;20095;-83
2022/01/24 11:41:26;;;;;;;1.65;1.55;;;5.40;99.90;;;;;;5070280;28;20148;-83
2022/01/24 11:44:05;;;;;;;1.33;1.23;;;5.40;99.90;;;;;;5074139;28;20064;-83
2022/01/24 11:46:59;;;;;;;3.58;3.05;;;5.40;99.90;;;;;;5070766;28;20098;-83
2022/01/24 11:49:25;;;;;;;2.45;2.25;;;5.40;99.90;;;;;;5071055;28;20539;-84
2022/01/24 11:52:03;;;;;;;4.47;1.95;;;5.40;99.90;;;;;;5075111;28;20048;-83
2022/01/24 11:57:32;;;;;;;3.65;3.13;;;5.40;99.90;;;;;;5069082;28;20053;-84
2022/01/24 12:00:07;;;;;;;3.15;2.78;;;5.40;99.90;;;;;;5071849;28;20045;-83
2022/01/24 12:03:01;;;;;;;3.28;2.95;;;5.40;99.90;;;;;;5068157;28;20056;-84
2022/01/24 12:05:50;;;;;;;6.95;2.33;;;5.40;99.90;;;;;;5071903;28;20033;-83
2022/01/24 12:08:38;;;;;;;6.13;3.47;;;5.40;99.90;;;;;;5068452;28;20040;-82
2022/01/24 12:11:22;;;;;;;3.60;2.88;;;5.30;99.90;;;;;;5051804;28;20045;-82
2022/01/24 12:14:02;;;;;;;;;;;5.40;99.90;;;;;;5076846;28;20040;-83
2022/01/24 12:16:37;;;;;;;1.52;1.42;;;5.40;99.90;;;;;;5077461;28;20020;-82
2022/01/24 12:19:05;;;;;;;3.22;2.63;;;5.80;99.90;;;;;;5073611;28;20123;-82
2022/01/24 12:21:33;;;;;;;1.67;1.58;;;5.30;99.90;;;;;;5068481;28;20041;-82
2022/01/24 12:24:01;;;;;;;2.67;1.52;;;5.30;99.90;;;;;;5055817;28;20044;-83
2022/01/24 12:26:33;;;;;;;2.33;1.60;;;5.30;99.90;;;;;;5078191;28;20040;-82
2022/01/24 12:29:03;;;;;;;1.92;1.73;;;5.30;99.90;;;;;;5072234;28;20059;-84
2022/01/24 12:31:36;;;;;;;4.97;2.67;;;5.30;99.90;;;;;;5066534;28;20044;-84
2022/01/24 12:34:18;;;;;;;3.13;2.83;;;5.30;99.90;;;;;;5074154;28;20033;-84
2022/01/24 12:36:48;;;;;;;3.25;2.17;;;5.30;99.90;;;;;;5074328;28;20098;-85
2022/01/24 12:39:20;;;;;;;2.85;2.22;;;5.30;99.90;;;;;;5063990;28;20697;-85
2022/01/24 12:41:51;;;;;;;1.63;1.52;;;5.40;99.90;;;;;;5071181;28;20498;-85
2022/01/24 12:47:16;;;;;;;2.40;1.40;;;5.30;99.90;;;;;;5066845;28;20052;-85
2022/01/24 12:49:46;;;;;;;5.10;2.08;;;5.30;99.90;;;;;;5061413;28;20048;-86
2022/01/24 12:52:17;;;;;;;9.20;3.78;;;5.30;99.90;;;;;;5051237;28;20044;-85
2022/01/24 12:54:49;;;;;;;1.98;1.83;;;5.30;99.90;;;;;;5067890;28;20048;-84
2022/01/24 12:57:22;;;;;;;2.53;1.98;;;5.30;99.90;;;;;;5060585;28;20059;-83
2022/01/24 13:00:10;;;;;;;2.55;2.03;;;5.20;99.90;;;;;;5070902;28;20564;-83
2022/01/24 13:02:38;;;;;;;2.38;2.17;;;5.40;99.90;;;;;;5051302;28;20048;-82
2022/01/24 13:05:20;;;;;;;1.15;1.05;;;5.40;99.90;;;;;;5071535;28;20646;-82
2022/01/24 13:07:57;;;;;;;3.33;3.03;;;5.40;99.90;;;;;;5076741;28;20059;-82
2022/01/24 13:10:26;;;;;;;3.75;2.58;;;5.40;99.90;;;;;;5067345;28;20083;-84
2022/01/24 13:13:00;;;;;;;7.25;2.88;;;5.30;99.90;;;;;;5072187;28;20076;-83
2022/01/24 13:23:31;;;;;;;2.03;1.67;;;5.30;99.90;;;;;;5075095;28;19970;-83
2022/01/24 13:25:56;;;;;;;5.03;2.95;;;5.20;99.90;;;;;;5066041;28;20662;-82
2022/01/24 13:28:23;;;;;;;3.03;2.08;;;5.30;99.90;;;;;;5080546;28;20036;-82
2022/01/24 13:31:04;;;;;;;2.17;1.70;;;5.30;99.90;;;;;;5074187;28;20049;-83
2022/01/24 13:33:32;;;;;;;4.00;2.65;;;5.30;99.90;;;;;;5075995;28;20058;-83
2022/01/24 13:36:08;;;;;;;4.00;1.98;;;5.20;99.90;;;;;;5070312;28;20047;-81
2022/01/24 13:38:39;;;;;;;6.07;3.90;;;5.60;99.90;;;;;;5075805;28;20040;-83
2022/01/24 13:41:11;;;;;;;6.03;2.28;;;5.30;99.90;;;;;;5076596;28;20512;-83
2022/01/24 13:43:48;;;;;;;1.92;1.83;;;5.20;99.90;;;;;;5075108;28;20055;-82
2022/01/24 13:46:19;;;;;;;2.65;1.65;;;5.20;99.90;;;;;;5059986;28;20111;-81
2022/01/24 13:48:48;;;;;;;2.03;1.13;;;5.20;99.90;;;;;;5075767;28;20136;-82
2022/01/24 13:51:17;;;;;;;2.95;1.83;;;5.20;99.90;;;;;;5071855;28;20055;-80
2022/01/24 13:54:04;;;;;;;1.70;1.60;;;5.10;99.90;;;;;;5082018;28;20045;-80
2022/01/24 13:56:39;;;;;;;1.50;1.40;;;5.20;99.90;;;;;;5076068;28;20136;-80
2022/01/24 13:59:33;;;;;;;2.50;1.42;;;5.20;99.90;;;;;;5073791;28;20071;-81
2022/01/24 14:02:02;;;;;;;1.67;1.58;;;5.20;99.90;;;;;;5068326;28;20113;-82
2022/01/24 14:04:36;;;;;;;2.67;1.77;;;5.20;99.90;;;;;;5079353;28;20036;-80
2022/01/24 14:07:06;;;;;;;1.55;1.45;;;5.20;99.90;;;;;;5076310;28;20041;-81
2022/01/24 14:09:46;;;;;;;2.22;1.83;;;5.10;99.90;;;;;;5076580;28;20033;-82
2022/01/24 14:12:18;;;;;;;2.20;2.00;;;5.20;99.90;;;;;;5075540;28;20045;-81
2022/01/24 14:14:49;;;;;;;9.50;2.90;;;5.20;99.90;;;;;;5077437;28;20104;-80
2022/01/24 14:17:32;;;;;;;1.80;1.70;;;5.20;99.90;;;;;;5079001;28;20083;-80
2022/01/24 14:20:18;;;;;;;0.80;0.80;;;5.20;99.90;;;;;;5069624;28;20049;-80
2022/01/24 14:22:51;;;;;;;2.60;2.13;;;5.20;99.90;;;;;;5075603;28;20811;-82
2022/01/24 14:25:29;;;;;;;1.65;1.50;;;5.20;99.90;;;;;;5080849;28;20101;-79
2022/01/24 14:27:56;;;;;;;1.00;0.90;;;5.20;99.90;;;;;;5079911;28;20033;-81
2022/01/24 14:30:25;;;;;;;1.45;1.23;;;5.20;99.90;;;;;;5073437;28;20041;-80
2022/01/24 14:33:12;;;;;;;1.17;1.13;;;5.10;99.90;;;;;;5071094;28;20065;-80
2022/01/24 14:36:02;;;;;;;1.02;1.02;;;5.10;99.90;;;;;;5080758;28;20051;-81
2022/01/24 14:38:34;;;;;;;1.55;1.45;;;5.10;99.90;;;;;;5070273;28;20045;-80
2022/01/24 14:41:03;;;;;;;1.73;1.60;;;5.10;99.90;;;;;;5076369;28;20051;-79
2022/01/24 14:46:20;;;;;;;1.92;1.67;;;5.10;99.90;;;;;;5082479;28;20040;-81
2022/01/24 14:48:48;;;;;;;0.80;0.80;;;5.00;99.90;;;;;;5070781;28;20041;-80
2022/01/24 14:51:16;;;;;;;5.55;1.58;;;5.00;99.90;;;;;;5070973;28;20106;-81
2022/01/24 14:53:42;;;;;;;2.20;2.00;;;5.00;99.90;;;;;;5069413;28;20079;-81
2022/01/24 14:56:07;;;;;;;1.10;1.05;;;5.10;99.90;;;;;;5072837;28;20081;-80
2022/01/24 14:58:34;;;;;;;1.70;1.50;;;5.00;99.90;;;;;;5077671;28;20108;-80
2022/01/24 15:00:59;;;;;;;1.65;1.55;;;5.00;99.90;;;;;;5066576;28;20041;-83